sensor_id;sensor_type;location;lat;lon;timestamp;P1;durP1;ratioP1;P2;durP2;ratioP2
71814;SDS011;59659;41.520;23.794;2023-02-01T00:00:55;5.55;;;3.22;;
71814;SDS011;59659;41.520;23.794;2023-02-01T00:02:07;7.95;;;2.88;;
71814;SDS011;59659;41.520;23.794;2023-02-01T00:03:18;4.38;;;2.88;;
71814;SDS011;59659;41.520;23.794;2023-02-01T00:04:30;5.50;;;3.33;;
71814;SDS011;59659;41.520;23.794;2023-02-01T00:05:41;5.25;;;2.45;;
71814;SDS011;59659;41.520;23.794;2023-02-01T00:06:53;2.42;;;1.73;;
71814;SDS011;59659;41.520;23.794;2023-02-01T00:08:04;9.00;;;3.05;;
71814;SDS011;59659;41.520;23.794;2023-02-01T00:09:16;2.50;;;2.03;;
71814;SDS011;59659;41.520;23.794;2023-02-01T00:10:27;3.83;;;1.85;;
71814;SDS011;59659;41.520;23.794;2023-02-01T00:11:39;2.50;;;2.05;;
71814;SDS011;59659;41.520;23.794;2023-02-01T00:12:51;2.85;;;2.08;;
71814;SDS011;59659;41.520;23.794;2023-02-01T00:14:03;2.15;;;1.52;;
71814;SDS011;59659;41.520;23.794;2023-02-01T00:15:14;3.75;;;2.05;;
71814;SDS011;59659;41.520;23.794;2023-02-01T00:16:27;1.30;;;1.20;;
71814;SDS011;59659;41.520;23.794;2023-02-01T00:17:39;1.75;;;1.35;;
71814;SDS011;59659;41.520;23.794;2023-02-01T00:18:51;1.55;;;1.45;;
71814;SDS011;59659;41.520;23.794;2023-02-01T00:20:03;1.35;;;1.10;;
71814;SDS011;59659;41.520;23.794;2023-02-01T00:21:16;1.60;;;1.25;;
71814;SDS011;59659;41.520;23.794;2023-02-01T00:22:28;1.20;;;1.05;;
71814;SDS011;59659;41.520;23.794;2023-02-01T00:23:40;1.70;;;1.35;;
71814;SDS011;59659;41.520;23.794;2023-02-01T00:24:51;4.10;;;1.48;;
71814;SDS011;59659;41.520;23.794;2023-02-01T00:26:03;3.90;;;1.25;;
71814;SDS011;59659;41.520;23.794;2023-02-01T00:27:15;1.00;;;0.90;;
71814;SDS011;59659;41.520;23.794;2023-02-01T00:28:28;1.75;;;1.65;;
71814;SDS011;59659;41.520;23.794;2023-02-01T00:29:40;1.60;;;1.00;;
71814;SDS011;59659;41.520;23.794;2023-02-01T00:30:59;1.63;;;1.20;;
71814;SDS011;59659;41.520;23.794;2023-02-01T00:32:11;2.30;;;1.10;;
71814;SDS011;59659;41.520;23.794;2023-02-01T00:33:23;3.22;;;1.55;;
71814;SDS011;59659;41.520;23.794;2023-02-01T00:34:35;1.83;;;1.40;;
71814;SDS011;59659;41.520;23.794;2023-02-01T00:35:46;2.65;;;1.55;;
71814;SDS011;59659;41.520;23.794;2023-02-01T00:36:58;4.75;;;1.65;;
71814;SDS011;59659;41.520;23.794;2023-02-01T00:38:11;7.20;;;1.63;;
71814;SDS011;59659;41.520;23.794;2023-02-01T00:39:23;4.65;;;2.30;;
71814;SDS011;59659;41.520;23.794;2023-02-01T00:40:34;5.70;;;1.85;;
71814;SDS011;59659;41.520;23.794;2023-02-01T00:41:46;14.25;;;2.75;;
71814;SDS011;59659;41.520;23.794;2023-02-01T00:42:57;4.53;;;2.90;;
71814;SDS011;59659;41.520;23.794;2023-02-01T00:44:09;3.25;;;2.38;;
71814;SDS011;59659;41.520;23.794;2023-02-01T00:45:20;5.32;;;2.63;;
71814;SDS011;59659;41.520;23.794;2023-02-01T00:46:32;4.22;;;2.38;;
71814;SDS011;59659;41.520;23.794;2023-02-01T00:47:43;3.38;;;1.85;;
71814;SDS011;59659;41.520;23.794;2023-02-01T00:48:55;3.65;;;1.70;;
71814;SDS011;59659;41.520;23.794;2023-02-01T00:50:07;3.50;;;2.13;;
71814;SDS011;59659;41.520;23.794;2023-02-01T00:51:19;3.97;;;1.98;;
71814;SDS011;59659;41.520;23.794;2023-02-01T00:52:31;3.50;;;1.90;;
71814;SDS011;59659;41.520;23.794;2023-02-01T00:53:43;3.25;;;2.33;;
71814;SDS011;59659;41.520;23.794;2023-02-01T00:54:55;2.17;;;1.60;;
71814;SDS011;59659;41.520;23.794;2023-02-01T00:56:06;2.88;;;1.90;;
71814;SDS011;59659;41.520;23.794;2023-02-01T00:57:18;4.40;;;3.08;;
71814;SDS011;59659;41.520;23.794;2023-02-01T00:58:29;6.20;;;3.17;;
71814;SDS011;59659;41.520;23.794;2023-02-01T00:59:41;4.38;;;2.65;;
71814;SDS011;59659;41.520;23.794;2023-02-01T01:01:14;8.98;;;3.53;;
71814;SDS011;59659;41.520;23.794;2023-02-01T01:02:25;3.22;;;2.15;;
71814;SDS011;59659;41.520;23.794;2023-02-01T01:03:41;3.28;;;2.05;;
71814;SDS011;59659;41.520;23.794;2023-02-01T01:04:53;2.90;;;1.88;;
71814;SDS011;59659;41.520;23.794;2023-02-01T01:06:05;2.75;;;1.73;;
71814;SDS011;59659;41.520;23.794;2023-02-01T01:07:17;2.72;;;1.55;;
71814;SDS011;59659;41.520;23.794;2023-02-01T01:08:29;4.60;;;1.52;;
71814;SDS011;59659;41.520;23.794;2023-02-01T01:09:40;2.53;;;1.08;;
71814;SDS011;59659;41.520;23.794;2023-02-01T01:10:52;2.05;;;1.00;;
71814;SDS011;59659;41.520;23.794;2023-02-01T01:12:03;1.70;;;1.02;;
71814;SDS011;59659;41.520;23.794;2023-02-01T01:13:15;1.83;;;1.45;;
71814;SDS011;59659;41.520;23.794;2023-02-01T01:14:26;4.28;;;1.73;;
71814;SDS011;59659;41.520;23.794;2023-02-01T01:15:38;0.98;;;0.90;;
71814;SDS011;59659;41.520;23.794;2023-02-01T01:16:50;0.85;;;0.85;;
71814;SDS011;59659;41.520;23.794;2023-02-01T01:18:01;3.03;;;1.38;;
71814;SDS011;59659;41.520;23.794;2023-02-01T01:19:13;0.95;;;0.93;;
71814;SDS011;59659;41.520;23.794;2023-02-01T01:20:24;1.10;;;1.05;;
71814;SDS011;59659;41.520;23.794;2023-02-01T01:21:36;1.50;;;1.23;;
71814;SDS011;59659;41.520;23.794;2023-02-01T01:22:49;1.13;;;1.05;;
71814;SDS011;59659;41.520;23.794;2023-02-01T01:24:00;1.33;;;1.02;;
71814;SDS011;59659;41.520;23.794;2023-02-01T01:25:12;1.52;;;1.38;;
71814;SDS011;59659;41.520;23.794;2023-02-01T01:26:25;3.58;;;1.50;;
71814;SDS011;59659;41.520;23.794;2023-02-01T01:27:36;3.63;;;1.25;;
71814;SDS011;59659;41.520;23.794;2023-02-01T01:28:48;4.22;;;2.28;;
71814;SDS011;59659;41.520;23.794;2023-02-01T01:30:00;6.90;;;2.55;;
71814;SDS011;59659;41.520;23.794;2023-02-01T01:31:12;9.65;;;3.10;;
71814;SDS011;59659;41.520;23.794;2023-02-01T01:32:24;7.55;;;3.47;;
71814;SDS011;59659;41.520;23.794;2023-02-01T01:33:36;8.70;;;5.28;;
71814;SDS011;59659;41.520;23.794;2023-02-01T01:34:47;8.90;;;3.50;;
71814;SDS011;59659;41.520;23.794;2023-02-01T01:35:59;6.95;;;4.28;;
71814;SDS011;59659;41.520;23.794;2023-02-01T01:37:10;6.70;;;3.40;;
71814;SDS011;59659;41.520;23.794;2023-02-01T01:38:22;9.82;;;3.85;;
71814;SDS011;59659;41.520;23.794;2023-02-01T01:39:33;8.00;;;4.78;;
71814;SDS011;59659;41.520;23.794;2023-02-01T01:40:45;10.90;;;4.30;;
71814;SDS011;59659;41.520;23.794;2023-02-01T01:41:59;9.65;;;4.03;;
71814;SDS011;59659;41.520;23.794;2023-02-01T01:43:15;14.13;;;5.00;;
71814;SDS011;59659;41.520;23.794;2023-02-01T01:45:57;7.97;;;4.95;;
71814;SDS011;59659;41.520;23.794;2023-02-01T01:47:08;8.73;;;4.35;;
71814;SDS011;59659;41.520;23.794;2023-02-01T01:48:25;9.32;;;4.97;;
71814;SDS011;59659;41.520;23.794;2023-02-01T01:49:38;8.98;;;4.97;;
71814;SDS011;59659;41.520;23.794;2023-02-01T01:50:51;20.50;;;4.35;;
71814;SDS011;59659;41.520;23.794;2023-02-01T01:52:05;10.20;;;3.47;;
71814;SDS011;59659;41.520;23.794;2023-02-01T01:53:18;7.13;;;3.40;;
71814;SDS011;59659;41.520;23.794;2023-02-01T01:54:36;7.47;;;4.00;;
71814;SDS011;59659;41.520;23.794;2023-02-01T01:55:48;9.82;;;3.58;;
71814;SDS011;59659;41.520;23.794;2023-02-01T01:57:02;9.65;;;3.15;;
71814;SDS011;59659;41.520;23.794;2023-02-01T01:58:18;9.52;;;4.22;;
71814;SDS011;59659;41.520;23.794;2023-02-01T01:59:30;7.75;;;3.10;;
71814;SDS011;59659;41.520;23.794;2023-02-01T02:00:42;10.15;;;4.25;;
71814;SDS011;59659;41.520;23.794;2023-02-01T02:01:54;9.15;;;4.20;;
71814;SDS011;59659;41.520;23.794;2023-02-01T02:03:08;5.85;;;3.53;;
71814;SDS011;59659;41.520;23.794;2023-02-01T02:04:23;6.90;;;3.92;;
71814;SDS011;59659;41.520;23.794;2023-02-01T02:05:34;9.45;;;3.65;;
71814;SDS011;59659;41.520;23.794;2023-02-01T02:06:50;5.85;;;2.83;;
71814;SDS011;59659;41.520;23.794;2023-02-01T02:08:03;7.38;;;3.20;;
71814;SDS011;59659;41.520;23.794;2023-02-01T02:09:14;4.95;;;2.78;;
71814;SDS011;59659;41.520;23.794;2023-02-01T02:10:26;6.82;;;2.90;;
71814;SDS011;59659;41.520;23.794;2023-02-01T02:11:58;4.45;;;2.13;;
71814;SDS011;59659;41.520;23.794;2023-02-01T02:13:13;5.90;;;3.08;;
71814;SDS011;59659;41.520;23.794;2023-02-01T02:14:25;11.38;;;4.45;;
71814;SDS011;59659;41.520;23.794;2023-02-01T02:15:38;4.28;;;2.88;;
71814;SDS011;59659;41.520;23.794;2023-02-01T02:18:17;5.10;;;3.13;;
71814;SDS011;59659;41.520;23.794;2023-02-01T02:21:14;4.88;;;2.75;;
71814;SDS011;59659;41.520;23.794;2023-02-01T02:37:01;9.48;;;3.60;;
71814;SDS011;59659;41.520;23.794;2023-02-01T02:46:44;5.88;;;2.92;;
71814;SDS011;59659;41.520;23.794;2023-02-01T02:48:26;3.28;;;2.33;;
71814;SDS011;59659;41.520;23.794;2023-02-01T02:49:47;5.65;;;3.15;;
71814;SDS011;59659;41.520;23.794;2023-02-01T02:51:23;5.25;;;3.03;;
71814;SDS011;59659;41.520;23.794;2023-02-01T02:53:05;4.85;;;2.45;;
71814;SDS011;59659;41.520;23.794;2023-02-01T02:54:39;3.70;;;2.15;;
71814;SDS011;59659;41.520;23.794;2023-02-01T02:56:03;3.60;;;2.25;;
71814;SDS011;59659;41.520;23.794;2023-02-01T02:57:36;6.40;;;2.53;;
71814;SDS011;59659;41.520;23.794;2023-02-01T02:59:07;6.95;;;2.53;;
71814;SDS011;59659;41.520;23.794;2023-02-01T03:00:37;4.47;;;2.40;;
71814;SDS011;59659;41.520;23.794;2023-02-01T03:02:08;3.63;;;2.03;;
71814;SDS011;59659;41.520;23.794;2023-02-01T03:03:38;7.18;;;1.90;;
71814;SDS011;59659;41.520;23.794;2023-02-01T03:05:08;3.80;;;1.88;;
71814;SDS011;59659;41.520;23.794;2023-02-01T03:06:22;1.88;;;1.60;;
71814;SDS011;59659;41.520;23.794;2023-02-01T03:09:04;5.38;;;2.08;;
71814;SDS011;59659;41.520;23.794;2023-02-01T03:11:35;5.45;;;1.85;;
71814;SDS011;59659;41.520;23.794;2023-02-01T03:13:06;2.47;;;1.45;;
71814;SDS011;59659;41.520;23.794;2023-02-01T03:14:19;4.10;;;1.67;;
71814;SDS011;59659;41.520;23.794;2023-02-01T03:15:36;2.55;;;1.55;;
71814;SDS011;59659;41.520;23.794;2023-02-01T03:16:54;4.40;;;1.92;;
71814;SDS011;59659;41.520;23.794;2023-02-01T03:18:11;3.53;;;2.45;;
71814;SDS011;59659;41.520;23.794;2023-02-01T03:19:25;4.22;;;2.75;;
71814;SDS011;59659;41.520;23.794;2023-02-01T03:20:39;6.57;;;3.20;;
71814;SDS011;59659;41.520;23.794;2023-02-01T03:23:07;5.00;;;2.72;;
71814;SDS011;59659;41.520;23.794;2023-02-01T03:24:24;2.70;;;2.25;;
71814;SDS011;59659;41.520;23.794;2023-02-01T03:25:44;3.78;;;2.22;;
71814;SDS011;59659;41.520;23.794;2023-02-01T03:27:01;6.22;;;3.08;;
71814;SDS011;59659;41.520;23.794;2023-02-01T03:28:14;4.85;;;3.13;;
71814;SDS011;59659;41.520;23.794;2023-02-01T03:29:37;3.63;;;2.90;;
71814;SDS011;59659;41.520;23.794;2023-02-01T03:30:49;6.55;;;2.88;;
71814;SDS011;59659;41.520;23.794;2023-02-01T03:32:00;6.72;;;3.38;;
71814;SDS011;59659;41.520;23.794;2023-02-01T03:33:16;4.22;;;2.35;;
71814;SDS011;59659;41.520;23.794;2023-02-01T03:34:32;3.38;;;2.92;;
71814;SDS011;59659;41.520;23.794;2023-02-01T03:36:05;6.38;;;3.25;;
71814;SDS011;59659;41.520;23.794;2023-02-01T03:37:27;4.85;;;2.65;;
71814;SDS011;59659;41.520;23.794;2023-02-01T03:39:56;14.55;;;6.03;;
71814;SDS011;59659;41.520;23.794;2023-02-01T03:41:12;12.35;;;6.00;;
71814;SDS011;59659;41.520;23.794;2023-02-01T03:42:35;7.35;;;3.60;;
71814;SDS011;59659;41.520;23.794;2023-02-01T03:43:52;15.73;;;5.55;;
71814;SDS011;59659;41.520;23.794;2023-02-01T03:45:39;19.33;;;8.50;;
71814;SDS011;59659;41.520;23.794;2023-02-01T03:46:50;15.80;;;7.88;;
71814;SDS011;59659;41.520;23.794;2023-02-01T03:48:02;12.70;;;6.00;;
71814;SDS011;59659;41.520;23.794;2023-02-01T03:49:19;11.45;;;4.65;;
71814;SDS011;59659;41.520;23.794;2023-02-01T03:50:33;8.18;;;2.92;;
71814;SDS011;59659;41.520;23.794;2023-02-01T03:51:47;5.90;;;3.80;;
71814;SDS011;59659;41.520;23.794;2023-02-01T03:53:04;4.43;;;2.83;;
71814;SDS011;59659;41.520;23.794;2023-02-01T03:54:18;4.78;;;2.80;;
71814;SDS011;59659;41.520;23.794;2023-02-01T03:55:30;4.38;;;2.88;;
71814;SDS011;59659;41.520;23.794;2023-02-01T03:56:42;5.53;;;2.78;;
71814;SDS011;59659;41.520;23.794;2023-02-01T03:57:59;14.90;;;7.43;;
71814;SDS011;59659;41.520;23.794;2023-02-01T03:59:12;51.55;;;21.85;;
71814;SDS011;59659;41.520;23.794;2023-02-01T04:00:25;32.10;;;13.90;;
71814;SDS011;59659;41.520;23.794;2023-02-01T04:01:37;23.27;;;10.52;;
71814;SDS011;59659;41.520;23.794;2023-02-01T04:02:48;16.17;;;6.10;;
71814;SDS011;59659;41.520;23.794;2023-02-01T04:04:00;4.43;;;3.17;;
71814;SDS011;59659;41.520;23.794;2023-02-01T04:05:12;6.15;;;3.40;;
71814;SDS011;59659;41.520;23.794;2023-02-01T04:06:24;6.85;;;2.78;;
71814;SDS011;59659;41.520;23.794;2023-02-01T04:07:35;3.97;;;3.30;;
71814;SDS011;59659;41.520;23.794;2023-02-01T04:08:47;10.68;;;2.63;;
71814;SDS011;59659;41.520;23.794;2023-02-01T04:09:58;6.28;;;2.67;;
71814;SDS011;59659;41.520;23.794;2023-02-01T04:11:10;3.28;;;2.38;;
71814;SDS011;59659;41.520;23.794;2023-02-01T04:12:22;8.82;;;4.63;;
71814;SDS011;59659;41.520;23.794;2023-02-01T04:13:33;6.75;;;3.72;;
71814;SDS011;59659;41.520;23.794;2023-02-01T04:14:45;9.63;;;3.88;;
71814;SDS011;59659;41.520;23.794;2023-02-01T04:15:56;9.13;;;4.25;;
71814;SDS011;59659;41.520;23.794;2023-02-01T04:17:08;5.45;;;3.55;;
71814;SDS011;59659;41.520;23.794;2023-02-01T04:18:19;10.90;;;3.50;;
71814;SDS011;59659;41.520;23.794;2023-02-01T04:19:31;10.90;;;4.60;;
71814;SDS011;59659;41.520;23.794;2023-02-01T04:20:42;14.73;;;7.47;;
71814;SDS011;59659;41.520;23.794;2023-02-01T04:21:54;23.77;;;10.75;;
71814;SDS011;59659;41.520;23.794;2023-02-01T04:23:06;24.65;;;11.85;;
71814;SDS011;59659;41.520;23.794;2023-02-01T04:24:17;12.32;;;6.45;;
71814;SDS011;59659;41.520;23.794;2023-02-01T04:25:29;16.33;;;7.45;;
71814;SDS011;59659;41.520;23.794;2023-02-01T04:26:40;17.35;;;6.18;;
71814;SDS011;59659;41.520;23.794;2023-02-01T04:27:52;8.90;;;5.25;;
71814;SDS011;59659;41.520;23.794;2023-02-01T04:29:04;8.00;;;4.85;;
71814;SDS011;59659;41.520;23.794;2023-02-01T04:30:15;7.55;;;4.47;;
71814;SDS011;59659;41.520;23.794;2023-02-01T04:31:27;8.75;;;5.35;;
71814;SDS011;59659;41.520;23.794;2023-02-01T04:32:38;8.15;;;5.47;;
71814;SDS011;59659;41.520;23.794;2023-02-01T04:33:51;10.68;;;5.05;;
71814;SDS011;59659;41.520;23.794;2023-02-01T04:35:04;9.45;;;4.18;;
71814;SDS011;59659;41.520;23.794;2023-02-01T04:36:15;7.53;;;4.65;;
71814;SDS011;59659;41.520;23.794;2023-02-01T04:37:30;7.40;;;4.38;;
71814;SDS011;59659;41.520;23.794;2023-02-01T04:38:42;10.98;;;4.13;;
71814;SDS011;59659;41.520;23.794;2023-02-01T04:39:53;6.88;;;3.78;;
71814;SDS011;59659;41.520;23.794;2023-02-01T04:41:05;11.52;;;5.57;;
71814;SDS011;59659;41.520;23.794;2023-02-01T04:42:16;26.02;;;9.85;;
71814;SDS011;59659;41.520;23.794;2023-02-01T04:43:28;25.40;;;10.35;;
71814;SDS011;59659;41.520;23.794;2023-02-01T04:44:39;22.50;;;11.00;;
71814;SDS011;59659;41.520;23.794;2023-02-01T04:45:53;15.07;;;8.80;;
71814;SDS011;59659;41.520;23.794;2023-02-01T04:47:05;22.25;;;8.93;;
71814;SDS011;59659;41.520;23.794;2023-02-01T04:48:17;12.57;;;8.20;;
71814;SDS011;59659;41.520;23.794;2023-02-01T04:49:29;18.02;;;8.15;;
71814;SDS011;59659;41.520;23.794;2023-02-01T04:50:40;15.35;;;8.05;;
71814;SDS011;59659;41.520;23.794;2023-02-01T04:51:52;17.05;;;6.50;;
71814;SDS011;59659;41.520;23.794;2023-02-01T04:53:03;10.88;;;5.75;;
71814;SDS011;59659;41.520;23.794;2023-02-01T04:54:14;11.35;;;5.65;;
71814;SDS011;59659;41.520;23.794;2023-02-01T04:55:26;12.38;;;5.05;;
71814;SDS011;59659;41.520;23.794;2023-02-01T04:56:38;16.75;;;6.18;;
71814;SDS011;59659;41.520;23.794;2023-02-01T04:57:49;22.10;;;7.28;;
71814;SDS011;59659;41.520;23.794;2023-02-01T04:59:01;63.03;;;19.15;;
71814;SDS011;59659;41.520;23.794;2023-02-01T05:00:15;61.92;;;24.55;;
71814;SDS011;59659;41.520;23.794;2023-02-01T05:01:27;30.23;;;13.80;;
71814;SDS011;59659;41.520;23.794;2023-02-01T05:02:39;35.45;;;14.40;;
71814;SDS011;59659;41.520;23.794;2023-02-01T05:03:50;36.42;;;15.57;;
71814;SDS011;59659;41.520;23.794;2023-02-01T05:05:02;54.90;;;17.70;;
71814;SDS011;59659;41.520;23.794;2023-02-01T05:06:13;36.50;;;14.80;;
71814;SDS011;59659;41.520;23.794;2023-02-01T05:07:25;38.88;;;18.38;;
71814;SDS011;59659;41.520;23.794;2023-02-01T05:08:36;33.17;;;13.32;;
71814;SDS011;59659;41.520;23.794;2023-02-01T05:09:49;26.45;;;12.60;;
71814;SDS011;59659;41.520;23.794;2023-02-01T05:11:00;27.63;;;11.05;;
71814;SDS011;59659;41.520;23.794;2023-02-01T05:12:13;31.90;;;15.85;;
71814;SDS011;59659;41.520;23.794;2023-02-01T05:13:43;50.75;;;24.55;;
71814;SDS011;59659;41.520;23.794;2023-02-01T05:15:01;42.22;;;21.90;;
71814;SDS011;59659;41.520;23.794;2023-02-01T05:16:13;42.72;;;20.38;;
71814;SDS011;59659;41.520;23.794;2023-02-01T05:17:24;35.47;;;17.55;;
71814;SDS011;59659;41.520;23.794;2023-02-01T05:18:36;41.10;;;14.27;;
71814;SDS011;59659;41.520;23.794;2023-02-01T05:19:47;29.48;;;14.68;;
71814;SDS011;59659;41.520;23.794;2023-02-01T05:20:59;35.83;;;17.58;;
71814;SDS011;59659;41.520;23.794;2023-02-01T05:22:10;37.17;;;17.00;;
71814;SDS011;59659;41.520;23.794;2023-02-01T05:23:22;33.00;;;16.27;;
71814;SDS011;59659;41.520;23.794;2023-02-01T05:24:33;50.10;;;19.88;;
71814;SDS011;59659;41.520;23.794;2023-02-01T05:25:45;42.45;;;16.25;;
71814;SDS011;59659;41.520;23.794;2023-02-01T05:26:56;23.40;;;10.55;;
71814;SDS011;59659;41.520;23.794;2023-02-01T05:28:08;19.77;;;8.30;;
71814;SDS011;59659;41.520;23.794;2023-02-01T05:29:19;24.95;;;9.98;;
71814;SDS011;59659;41.520;23.794;2023-02-01T05:30:31;17.23;;;9.13;;
71814;SDS011;59659;41.520;23.794;2023-02-01T05:31:44;21.63;;;8.18;;
71814;SDS011;59659;41.520;23.794;2023-02-01T05:32:56;18.92;;;11.73;;
71814;SDS011;59659;41.520;23.794;2023-02-01T05:34:07;28.25;;;13.13;;
71814;SDS011;59659;41.520;23.794;2023-02-01T05:35:19;33.05;;;14.52;;
71814;SDS011;59659;41.520;23.794;2023-02-01T05:36:31;36.38;;;14.25;;
71814;SDS011;59659;41.520;23.794;2023-02-01T05:37:42;36.47;;;14.80;;
71814;SDS011;59659;41.520;23.794;2023-02-01T05:38:54;34.60;;;16.75;;
71814;SDS011;59659;41.520;23.794;2023-02-01T05:40:05;37.30;;;16.15;;
71814;SDS011;59659;41.520;23.794;2023-02-01T05:41:17;38.45;;;16.75;;
71814;SDS011;59659;41.520;23.794;2023-02-01T05:42:28;36.90;;;14.60;;
71814;SDS011;59659;41.520;23.794;2023-02-01T05:43:40;41.58;;;15.52;;
71814;SDS011;59659;41.520;23.794;2023-02-01T05:44:51;28.70;;;14.25;;
71814;SDS011;59659;41.520;23.794;2023-02-01T05:46:03;33.67;;;17.23;;
71814;SDS011;59659;41.520;23.794;2023-02-01T05:47:14;39.53;;;16.88;;
71814;SDS011;59659;41.520;23.794;2023-02-01T05:48:26;31.30;;;17.08;;
71814;SDS011;59659;41.520;23.794;2023-02-01T05:49:37;28.35;;;14.48;;
71814;SDS011;59659;41.520;23.794;2023-02-01T05:50:49;40.28;;;16.83;;
71814;SDS011;59659;41.520;23.794;2023-02-01T05:52:00;41.22;;;15.82;;
71814;SDS011;59659;41.520;23.794;2023-02-01T05:53:12;35.83;;;15.15;;
71814;SDS011;59659;41.520;23.794;2023-02-01T05:54:24;50.38;;;17.50;;
71814;SDS011;59659;41.520;23.794;2023-02-01T05:55:36;34.28;;;16.77;;
71814;SDS011;59659;41.520;23.794;2023-02-01T05:56:47;39.42;;;18.10;;
71814;SDS011;59659;41.520;23.794;2023-02-01T05:57:59;39.30;;;15.80;;
71814;SDS011;59659;41.520;23.794;2023-02-01T05:59:10;47.25;;;20.55;;
71814;SDS011;59659;41.520;23.794;2023-02-01T06:00:22;44.33;;;19.25;;
71814;SDS011;59659;41.520;23.794;2023-02-01T06:01:34;32.80;;;15.13;;
71814;SDS011;59659;41.520;23.794;2023-02-01T06:02:46;39.75;;;14.55;;
71814;SDS011;59659;41.520;23.794;2023-02-01T06:03:57;35.42;;;15.77;;
71814;SDS011;59659;41.520;23.794;2023-02-01T06:05:09;27.67;;;13.90;;
71814;SDS011;59659;41.520;23.794;2023-02-01T06:06:20;29.35;;;13.95;;
71814;SDS011;59659;41.520;23.794;2023-02-01T06:07:31;32.05;;;13.32;;
71814;SDS011;59659;41.520;23.794;2023-02-01T06:08:43;39.28;;;14.38;;
71814;SDS011;59659;41.520;23.794;2023-02-01T06:09:55;35.83;;;16.67;;
71814;SDS011;59659;41.520;23.794;2023-02-01T06:11:06;22.35;;;10.95;;
71814;SDS011;59659;41.520;23.794;2023-02-01T06:12:18;22.27;;;12.05;;
71814;SDS011;59659;41.520;23.794;2023-02-01T06:13:30;25.90;;;13.55;;
71814;SDS011;59659;41.520;23.794;2023-02-01T06:14:44;26.25;;;11.20;;
71814;SDS011;59659;41.520;23.794;2023-02-01T06:15:56;21.27;;;10.05;;
71814;SDS011;59659;41.520;23.794;2023-02-01T06:17:08;25.08;;;10.88;;
71814;SDS011;59659;41.520;23.794;2023-02-01T06:18:20;31.05;;;13.57;;
71814;SDS011;59659;41.520;23.794;2023-02-01T06:19:31;30.95;;;16.10;;
71814;SDS011;59659;41.520;23.794;2023-02-01T06:20:43;46.17;;;21.23;;
71814;SDS011;59659;41.520;23.794;2023-02-01T06:21:54;41.50;;;19.48;;
71814;SDS011;59659;41.520;23.794;2023-02-01T06:23:06;30.10;;;14.20;;
71814;SDS011;59659;41.520;23.794;2023-02-01T06:24:17;22.13;;;12.10;;
71814;SDS011;59659;41.520;23.794;2023-02-01T06:25:29;31.80;;;14.20;;
71814;SDS011;59659;41.520;23.794;2023-02-01T06:26:40;18.17;;;9.73;;
71814;SDS011;59659;41.520;23.794;2023-02-01T06:27:52;22.85;;;10.98;;
71814;SDS011;59659;41.520;23.794;2023-02-01T06:29:03;16.42;;;7.35;;
71814;SDS011;59659;41.520;23.794;2023-02-01T06:30:15;17.73;;;7.95;;
71814;SDS011;59659;41.520;23.794;2023-02-01T06:31:26;11.57;;;7.60;;
71814;SDS011;59659;41.520;23.794;2023-02-01T06:32:38;28.20;;;8.10;;
71814;SDS011;59659;41.520;23.794;2023-02-01T06:33:50;12.88;;;6.72;;
71814;SDS011;59659;41.520;23.794;2023-02-01T06:35:02;12.68;;;6.70;;
71814;SDS011;59659;41.520;23.794;2023-02-01T06:36:16;9.82;;;5.85;;
71814;SDS011;59659;41.520;23.794;2023-02-01T06:37:29;11.38;;;5.55;;
71814;SDS011;59659;41.520;23.794;2023-02-01T06:38:44;9.50;;;5.82;;
71814;SDS011;59659;41.520;23.794;2023-02-01T06:39:56;10.50;;;5.50;;
71814;SDS011;59659;41.520;23.794;2023-02-01T06:41:08;14.70;;;7.10;;
71814;SDS011;59659;41.520;23.794;2023-02-01T06:42:22;13.45;;;6.53;;
71814;SDS011;59659;41.520;23.794;2023-02-01T06:43:34;15.85;;;6.68;;
71814;SDS011;59659;41.520;23.794;2023-02-01T06:44:45;14.23;;;6.80;;
71814;SDS011;59659;41.520;23.794;2023-02-01T06:46:04;17.50;;;7.82;;
71814;SDS011;59659;41.520;23.794;2023-02-01T06:47:16;15.38;;;6.97;;
71814;SDS011;59659;41.520;23.794;2023-02-01T06:48:28;14.35;;;7.05;;
71814;SDS011;59659;41.520;23.794;2023-02-01T06:49:39;13.20;;;7.05;;
71814;SDS011;59659;41.520;23.794;2023-02-01T06:50:51;14.27;;;6.75;;
71814;SDS011;59659;41.520;23.794;2023-02-01T06:52:03;16.15;;;7.40;;
71814;SDS011;59659;41.520;23.794;2023-02-01T06:53:14;11.02;;;6.38;;
71814;SDS011;59659;41.520;23.794;2023-02-01T06:54:28;15.18;;;7.90;;
71814;SDS011;59659;41.520;23.794;2023-02-01T06:55:40;11.90;;;7.90;;
71814;SDS011;59659;41.520;23.794;2023-02-01T06:56:52;27.23;;;11.10;;
71814;SDS011;59659;41.520;23.794;2023-02-01T06:58:03;22.83;;;11.70;;
71814;SDS011;59659;41.520;23.794;2023-02-01T06:59:15;27.27;;;13.13;;
71814;SDS011;59659;41.520;23.794;2023-02-01T07:00:27;21.52;;;12.73;;
71814;SDS011;59659;41.520;23.794;2023-02-01T07:01:39;33.28;;;14.77;;
71814;SDS011;59659;41.520;23.794;2023-02-01T07:02:51;32.85;;;14.35;;
71814;SDS011;59659;41.520;23.794;2023-02-01T07:04:02;32.88;;;14.32;;
71814;SDS011;59659;41.520;23.794;2023-02-01T07:05:16;28.40;;;15.02;;
71814;SDS011;59659;41.520;23.794;2023-02-01T07:06:27;33.92;;;14.55;;
71814;SDS011;59659;41.520;23.794;2023-02-01T07:07:39;27.73;;;14.23;;
71814;SDS011;59659;41.520;23.794;2023-02-01T07:08:50;33.88;;;15.82;;
71814;SDS011;59659;41.520;23.794;2023-02-01T07:10:02;33.35;;;15.40;;
71814;SDS011;59659;41.520;23.794;2023-02-01T07:11:14;35.38;;;16.08;;
71814;SDS011;59659;41.520;23.794;2023-02-01T07:12:26;38.08;;;15.93;;
71814;SDS011;59659;41.520;23.794;2023-02-01T07:13:38;27.92;;;14.65;;
71814;SDS011;59659;41.520;23.794;2023-02-01T07:14:52;30.75;;;16.05;;
71814;SDS011;59659;41.520;23.794;2023-02-01T07:16:05;42.45;;;17.17;;
71814;SDS011;59659;41.520;23.794;2023-02-01T07:17:20;29.42;;;13.95;;
71814;SDS011;59659;41.520;23.794;2023-02-01T07:18:31;29.55;;;14.27;;
71814;SDS011;59659;41.520;23.794;2023-02-01T07:19:46;29.63;;;14.13;;
71814;SDS011;59659;41.520;23.794;2023-02-01T07:20:57;31.52;;;14.73;;
71814;SDS011;59659;41.520;23.794;2023-02-01T07:22:11;41.53;;;14.48;;
71814;SDS011;59659;41.520;23.794;2023-02-01T07:23:22;55.95;;;19.88;;
71814;SDS011;59659;41.520;23.794;2023-02-01T07:24:34;87.05;;;31.38;;
71814;SDS011;59659;41.520;23.794;2023-02-01T07:25:46;41.67;;;17.05;;
71814;SDS011;59659;41.520;23.794;2023-02-01T07:26:57;21.02;;;10.88;;
71814;SDS011;59659;41.520;23.794;2023-02-01T07:28:09;52.78;;;18.17;;
71814;SDS011;59659;41.520;23.794;2023-02-01T07:29:20;23.05;;;9.02;;
71814;SDS011;59659;41.520;23.794;2023-02-01T07:30:32;22.27;;;8.10;;
71814;SDS011;59659;41.520;23.794;2023-02-01T07:31:43;14.90;;;7.82;;
71814;SDS011;59659;41.520;23.794;2023-02-01T07:32:55;14.55;;;8.05;;
71814;SDS011;59659;41.520;23.794;2023-02-01T07:34:06;16.23;;;8.20;;
71814;SDS011;59659;41.520;23.794;2023-02-01T07:35:18;14.30;;;7.97;;
71814;SDS011;59659;41.520;23.794;2023-02-01T07:36:29;22.45;;;9.50;;
71814;SDS011;59659;41.520;23.794;2023-02-01T07:37:41;21.55;;;8.57;;
71814;SDS011;59659;41.520;23.794;2023-02-01T07:38:52;15.63;;;8.00;;
71814;SDS011;59659;41.520;23.794;2023-02-01T07:40:07;12.88;;;6.28;;
71814;SDS011;59659;41.520;23.794;2023-02-01T07:41:18;15.73;;;7.63;;
71814;SDS011;59659;41.520;23.794;2023-02-01T07:42:30;18.48;;;7.95;;
71814;SDS011;59659;41.520;23.794;2023-02-01T07:43:44;24.13;;;9.88;;